• Join FlightAware (Why Join?)
  • Login
  • US Flag 
10:41AM EDT


 

Airport Tracker/Info


-or-


 

Live Flight TrackerFlight Track Log ✈ N55VF ✈ 25-Apr-2013 ✈ KHAO - KPOV

Flight Track Log - Related Links

Times and Time Zones

All times are in EDT time to prevent confusion due to time zone crossing. See the N55VF flight status page for this flight to view local times or setup timezone preferences in your user account.

Time Position Orientation Groundspeed Altitude Reporting Facility
EDT Latitude Longitude Course Direction KTS MPH feet Rate Location/Type
03:40PM 39.3667 -84.5333 303° West 98 113 1,200  Level Cincinnati TRACON
03:41PM 39.3833 -84.5667 303° West 117 135 2,100 1,020 Climbing Cincinnati TRACON
03:42PM 39.4000 -84.6000 303° West 128 147 3,100 1,020 Climbing Cincinnati TRACON
03:43PM 39.4167 -84.5872 31° Northeast 183 211 3,800 1,020 Climbing Indianapolis Center
03:44PM 39.4428 -84.5408 54° Northeast 171 197 4,800 840 Climbing Indianapolis Center
03:44PM 39.4553 -84.5181 55° Northeast 171 197 5,100 180 Climbing Indianapolis Center
03:45PM 39.4869 -84.4631 53° Northeast 191 220 5,100 -60 Level Indianapolis Center
03:46PM 39.5236 -84.3975 54° Northeast 207 238 5,000 -120 Descending Indianapolis Center
03:47PM 39.5406 -84.3683 53° Northeast 200 230 5,000  Level Indianapolis Center
03:47PM 39.5556 -84.3397 56° Northeast 204 235 5,000  Level Indianapolis Center
03:48PM 39.5742 -84.3078 53° Northeast 203 234 5,000  Level Indianapolis Center
03:48PM 39.5894 -84.2819 52° Northeast 203 234 5,000  Level Indianapolis Center
03:49PM 39.6217 -84.2211 55° Northeast 201 231 5,000  Level Indianapolis Center
03:50PM 39.6456 -84.1808 52° Northeast 200 230 5,000  Level Indianapolis Center
03:50PM 39.6533 -84.1631 60° Northeast 199 229 5,000  Level Indianapolis Center
03:51PM 39.6897 -84.1000 53° Northeast 202 232 5,000  Level Indianapolis Center
03:52PM 39.7114 -84.0617 54° Northeast 201 231 5,000 60 Level Indianapolis Center
03:52PM 39.7217 -84.0417 56° Northeast 203 234 5,100  Climbing Indianapolis Center
03:53PM 39.7456 -84.0028 51° Northeast 202 232 5,000 -60 Descending Indianapolis Center
03:54PM 39.7786 -83.9425 54° Northeast 202 232 5,000  Level Indianapolis Center
03:55PM 39.8119 -83.8814 55° Northeast 203 234 5,000  Level Indianapolis Center
03:56PM 39.8506 -83.8117 54° Northeast 202 232 5,000  Level Indianapolis Center
03:57PM 39.8839 -83.7519 54° Northeast 202 232 5,000  Level Indianapolis Center
03:58PM 39.9175 -83.6911 54° Northeast 202 232 5,000  Level Indianapolis Center
03:59PM 39.9514 -83.6300 54° Northeast 204 235 5,000 -60 Level Indianapolis Center
04:00PM 39.9847 -83.5683 55° Northeast 204 235 4,900 -60 Descending Indianapolis Center
04:01PM 40.0192 -83.5067 54° Northeast 205 236 4,900  Level Indianapolis Center
04:03PM 40.0519 -83.4447 55° Northeast 205 236 5,000  Climbing Indianapolis Center
04:04PM 40.0867 -83.3825 54° Northeast 207 238 5,000  Level Indianapolis Center
04:05PM 40.1233 -83.3139 55° Northeast 203 234 5,000  Level Indianapolis Center
04:06PM 40.1531 -83.2589 55° Northeast 206 237 5,000  Level Indianapolis Center
04:07PM 40.1881 -83.1961 54° Northeast 206 237 5,000  Level Indianapolis Center
04:08PM 40.2175 -83.1342 58° Northeast 203 234 5,000  Level Indianapolis Center
04:09PM 40.2586 -83.0636 53° Northeast 206 237 5,000  Level Indianapolis Center
04:10PM 40.2889 -83.0086 54° Northeast 199 229 5,000  Level Indianapolis Center
04:11PM 40.3258 -82.9397 55° Northeast 206 237 5,000  Level Indianapolis Center
04:12PM 40.3600 -82.8758 55° Northeast 211 243 5,000  Level Indianapolis Center
04:13PM 40.3975 -82.8053 55° Northeast 211 243 5,000  Level Indianapolis Center
04:14PM 40.4322 -82.7411 55° Northeast 213 245 5,000  Level Indianapolis Center
04:15PM 40.4667 -82.6772 55° Northeast 213 245 5,000  Level Indianapolis Center
04:16PM 40.5000 -82.6156 55° Northeast 208 239 5,000  Level Indianapolis Center
04:17PM 40.5339 -82.5519 55° Northeast 209 241 5,000  Level Indianapolis Center
04:18PM 40.5667 -82.4881 56° Northeast 209 241 5,000  Level Indianapolis Center
04:19PM 40.6050 -82.4161 55° Northeast 206 237 5,000  Level Indianapolis Center
04:20PM 40.6381 -82.3533 55° Northeast 206 237 5,000 -120 Level Indianapolis Center
04:27PM 40.8510 -81.9500 55° Northeast 220 253 4,400 -120 Descending FlightAware
04:27PM 40.8690 -81.9150 56° Northeast 215 247 4,300 -180 Descending FlightAware
04:27PM 40.8780 -81.8980 55° Northeast 210 242 4,300 -180 Level FlightAware
04:28PM 40.8920 -81.8710 56° Northeast 208 239 4,200 -240 Descending FlightAware
04:28PM 40.9040 -81.8480 55° Northeast 209 241 4,100 -480 Descending FlightAware
04:28PM 40.9120 -81.8330 55° Northeast 214 246 3,900 -840 Descending FlightAware
04:29PM 40.9300 -81.7970 56° Northeast 218 251 3,500 -540 Descending FlightAware
04:29PM 40.9470 -81.7640 56° Northeast 215 247 3,400 -300 Descending FlightAware
04:30PM 40.9650 -81.7310 54° Northeast 217 250 3,200 -480 Descending FlightAware
04:30PM 40.9780 -81.7040 57° Northeast 213 245 3,000 -300 Descending FlightAware
04:31PM 40.9860 -81.6880 56° Northeast 210 242 3,000 -180 Level FlightAware
04:31PM 41.0000 -81.6610 56° Northeast 208 239 2,900 -240 Descending FlightAware
04:31PM 41.0160 -81.6300 56° Northeast 204 235 2,800 -180 Descending FlightAware
04:32PM 41.0230 -81.6140 60° Northeast 200 230 2,800  Level FlightAware
04:32PM 41.0260 -81.6000 74° East 195 224 2,800  Level FlightAware
04:32PM 41.0300 -81.5680 81° East 197 227 2,800  Level FlightAware